sensor_id;sensor_type;location;lat;lon;timestamp;P1;durP1;ratioP1;P2;durP2;ratioP2
20709;SDS011;10516;51.518;9.864;2023-05-20T00:00:35;4.78;;;3.90;;
20709;SDS011;10516;51.518;9.864;2023-05-20T00:03:00;5.65;;;3.85;;
20709;SDS011;10516;51.518;9.864;2023-05-20T00:05:26;6.35;;;3.65;;
20709;SDS011;10516;51.518;9.864;2023-05-20T00:07:52;7.25;;;3.75;;
20709;SDS011;10516;51.518;9.864;2023-05-20T00:10:17;4.13;;;3.65;;
20709;SDS011;10516;51.518;9.864;2023-05-20T00:12:43;6.75;;;4.10;;
20709;SDS011;10516;51.518;9.864;2023-05-20T00:15:08;6.00;;;3.88;;
20709;SDS011;10516;51.518;9.864;2023-05-20T00:17:36;7.05;;;4.07;;
20709;SDS011;10516;51.518;9.864;2023-05-20T00:20:01;6.90;;;4.70;;
20709;SDS011;10516;51.518;9.864;2023-05-20T00:22:29;6.05;;;4.85;;
20709;SDS011;10516;51.518;9.864;2023-05-20T00:24:54;3.92;;;3.53;;
20709;SDS011;10516;51.518;9.864;2023-05-20T00:27:20;5.05;;;3.50;;
20709;SDS011;10516;51.518;9.864;2023-05-20T00:29:45;6.50;;;3.65;;
20709;SDS011;10516;51.518;9.864;2023-05-20T00:32:10;6.75;;;4.05;;
20709;SDS011;10516;51.518;9.864;2023-05-20T00:34:36;9.82;;;4.03;;
20709;SDS011;10516;51.518;9.864;2023-05-20T00:37:01;4.60;;;3.85;;
20709;SDS011;10516;51.518;9.864;2023-05-20T00:39:26;4.53;;;3.60;;
20709;SDS011;10516;51.518;9.864;2023-05-20T00:41:53;7.53;;;4.30;;
20709;SDS011;10516;51.518;9.864;2023-05-20T00:44:18;4.72;;;3.88;;
20709;SDS011;10516;51.518;9.864;2023-05-20T00:46:47;6.53;;;3.67;;
20709;SDS011;10516;51.518;9.864;2023-05-20T00:49:14;5.40;;;4.05;;
20709;SDS011;10516;51.518;9.864;2023-05-20T00:51:40;5.20;;;4.00;;
20709;SDS011;10516;51.518;9.864;2023-05-20T00:54:05;5.25;;;3.90;;
20709;SDS011;10516;51.518;9.864;2023-05-20T00:56:31;4.88;;;3.70;;
20709;SDS011;10516;51.518;9.864;2023-05-20T00:58:56;4.10;;;3.72;;
20709;SDS011;10516;51.518;9.864;2023-05-20T01:01:22;4.93;;;3.63;;
20709;SDS011;10516;51.518;9.864;2023-05-20T01:03:47;7.57;;;4.45;;
20709;SDS011;10516;51.518;9.864;2023-05-20T01:06:12;6.53;;;4.32;;
20709;SDS011;10516;51.518;9.864;2023-05-20T01:08:38;6.00;;;3.90;;
20709;SDS011;10516;51.518;9.864;2023-05-20T01:11:12;7.10;;;4.30;;
20709;SDS011;10516;51.518;9.864;2023-05-20T01:13:46;6.22;;;4.18;;
20709;SDS011;10516;51.518;9.864;2023-05-20T01:16:19;4.80;;;4.30;;
20709;SDS011;10516;51.518;9.864;2023-05-20T01:18:48;4.53;;;3.70;;
20709;SDS011;10516;51.518;9.864;2023-05-20T01:21:19;6.20;;;4.45;;
20709;SDS011;10516;51.518;9.864;2023-05-20T01:23:46;4.57;;;3.60;;
20709;SDS011;10516;51.518;9.864;2023-05-20T01:26:11;7.65;;;4.45;;
20709;SDS011;10516;51.518;9.864;2023-05-20T01:28:41;4.07;;;3.67;;
20709;SDS011;10516;51.518;9.864;2023-05-20T01:31:10;4.40;;;3.85;;
20709;SDS011;10516;51.518;9.864;2023-05-20T01:33:41;4.97;;;3.55;;
20709;SDS011;10516;51.518;9.864;2023-05-20T01:36:07;8.38;;;4.55;;
20709;SDS011;10516;51.518;9.864;2023-05-20T01:38:33;5.03;;;3.83;;
20709;SDS011;10516;51.518;9.864;2023-05-20T01:41:01;6.45;;;3.03;;
20709;SDS011;10516;51.518;9.864;2023-05-20T01:43:29;4.20;;;3.80;;
20709;SDS011;10516;51.518;9.864;2023-05-20T01:45:55;8.07;;;4.38;;
20709;SDS011;10516;51.518;9.864;2023-05-20T01:48:20;7.88;;;4.22;;
20709;SDS011;10516;51.518;9.864;2023-05-20T01:50:45;6.43;;;3.83;;
20709;SDS011;10516;51.518;9.864;2023-05-20T01:53:11;6.32;;;4.22;;
20709;SDS011;10516;51.518;9.864;2023-05-20T01:55:37;7.53;;;4.30;;
20709;SDS011;10516;51.518;9.864;2023-05-20T01:58:03;6.90;;;4.85;;
20709;SDS011;10516;51.518;9.864;2023-05-20T02:00:31;6.40;;;4.72;;
20709;SDS011;10516;51.518;9.864;2023-05-20T02:02:57;7.82;;;4.30;;
20709;SDS011;10516;51.518;9.864;2023-05-20T02:05:23;6.32;;;4.18;;
20709;SDS011;10516;51.518;9.864;2023-05-20T02:07:48;11.93;;;4.70;;
20709;SDS011;10516;51.518;9.864;2023-05-20T02:10:13;7.03;;;4.88;;
20709;SDS011;10516;51.518;9.864;2023-05-20T02:12:39;10.02;;;5.47;;
20709;SDS011;10516;51.518;9.864;2023-05-20T02:15:04;6.53;;;5.10;;
20709;SDS011;10516;51.518;9.864;2023-05-20T02:17:30;5.25;;;4.40;;
20709;SDS011;10516;51.518;9.864;2023-05-20T02:19:56;5.40;;;4.47;;
20709;SDS011;10516;51.518;9.864;2023-05-20T02:22:21;6.38;;;4.47;;
20709;SDS011;10516;51.518;9.864;2023-05-20T02:24:46;8.85;;;5.35;;
20709;SDS011;10516;51.518;9.864;2023-05-20T02:27:12;8.60;;;5.80;;
20709;SDS011;10516;51.518;9.864;2023-05-20T02:29:37;6.30;;;5.70;;
20709;SDS011;10516;51.518;9.864;2023-05-20T02:32:02;4.10;;;3.72;;
20709;SDS011;10516;51.518;9.864;2023-05-20T02:34:28;4.78;;;4.13;;
20709;SDS011;10516;51.518;9.864;2023-05-20T02:36:55;6.95;;;5.57;;
20709;SDS011;10516;51.518;9.864;2023-05-20T02:39:20;6.75;;;4.97;;
20709;SDS011;10516;51.518;9.864;2023-05-20T02:41:46;7.75;;;5.72;;
20709;SDS011;10516;51.518;9.864;2023-05-20T02:44:11;8.27;;;5.88;;
20709;SDS011;10516;51.518;9.864;2023-05-20T02:46:37;9.35;;;6.95;;
20709;SDS011;10516;51.518;9.864;2023-05-20T02:49:02;10.68;;;6.82;;
20709;SDS011;10516;51.518;9.864;2023-05-20T02:51:27;6.28;;;5.05;;
20709;SDS011;10516;51.518;9.864;2023-05-20T02:53:55;9.20;;;5.82;;
20709;SDS011;10516;51.518;9.864;2023-05-20T02:56:21;9.30;;;6.03;;
20709;SDS011;10516;51.518;9.864;2023-05-20T02:58:46;4.70;;;4.28;;
20709;SDS011;10516;51.518;9.864;2023-05-20T03:01:12;8.82;;;7.53;;
20709;SDS011;10516;51.518;9.864;2023-05-20T03:03:38;10.05;;;6.10;;
20709;SDS011;10516;51.518;9.864;2023-05-20T03:06:05;8.70;;;5.78;;
20709;SDS011;10516;51.518;9.864;2023-05-20T03:08:30;8.63;;;7.03;;
20709;SDS011;10516;51.518;9.864;2023-05-20T03:10:58;7.00;;;5.07;;
20709;SDS011;10516;51.518;9.864;2023-05-20T03:13:24;8.13;;;6.25;;
20709;SDS011;10516;51.518;9.864;2023-05-20T03:15:49;7.82;;;6.25;;
20709;SDS011;10516;51.518;9.864;2023-05-20T03:18:15;9.85;;;6.40;;
20709;SDS011;10516;51.518;9.864;2023-05-20T03:20:40;8.23;;;6.15;;
20709;SDS011;10516;51.518;9.864;2023-05-20T03:23:06;9.18;;;6.07;;
20709;SDS011;10516;51.518;9.864;2023-05-20T03:25:31;9.65;;;7.22;;
20709;SDS011;10516;51.518;9.864;2023-05-20T03:27:57;9.00;;;6.40;;
20709;SDS011;10516;51.518;9.864;2023-05-20T03:30:24;8.15;;;5.88;;
20709;SDS011;10516;51.518;9.864;2023-05-20T03:32:50;9.48;;;6.38;;
20709;SDS011;10516;51.518;9.864;2023-05-20T03:35:15;5.57;;;5.03;;
20709;SDS011;10516;51.518;9.864;2023-05-20T03:37:41;9.32;;;6.85;;
20709;SDS011;10516;51.518;9.864;2023-05-20T03:40:07;8.13;;;6.57;;
20709;SDS011;10516;51.518;9.864;2023-05-20T03:42:34;11.77;;;7.20;;
20709;SDS011;10516;51.518;9.864;2023-05-20T03:45:00;7.10;;;5.82;;
20709;SDS011;10516;51.518;9.864;2023-05-20T03:47:26;7.78;;;6.10;;
20709;SDS011;10516;51.518;9.864;2023-05-20T03:49:51;7.85;;;5.65;;
20709;SDS011;10516;51.518;9.864;2023-05-20T03:52:17;8.95;;;5.28;;
20709;SDS011;10516;51.518;9.864;2023-05-20T03:54:42;11.55;;;6.82;;
20709;SDS011;10516;51.518;9.864;2023-05-20T03:57:08;7.13;;;5.32;;
20709;SDS011;10516;51.518;9.864;2023-05-20T03:59:34;6.85;;;5.65;;
20709;SDS011;10516;51.518;9.864;2023-05-20T04:02:00;8.23;;;5.90;;
20709;SDS011;10516;51.518;9.864;2023-05-20T04:04:26;7.47;;;5.15;;
20709;SDS011;10516;51.518;9.864;2023-05-20T04:06:53;9.77;;;6.32;;
20709;SDS011;10516;51.518;9.864;2023-05-20T04:09:18;13.73;;;6.55;;
20709;SDS011;10516;51.518;9.864;2023-05-20T04:11:44;7.63;;;5.60;;
20709;SDS011;10516;51.518;9.864;2023-05-20T04:14:09;10.90;;;6.65;;
20709;SDS011;10516;51.518;9.864;2023-05-20T04:16:35;8.52;;;6.70;;
20709;SDS011;10516;51.518;9.864;2023-05-20T04:19:01;7.38;;;6.03;;
20709;SDS011;10516;51.518;9.864;2023-05-20T04:21:27;9.05;;;6.90;;
20709;SDS011;10516;51.518;9.864;2023-05-20T04:23:53;13.52;;;8.43;;
20709;SDS011;10516;51.518;9.864;2023-05-20T04:26:18;12.35;;;7.95;;
20709;SDS011;10516;51.518;9.864;2023-05-20T04:28:44;14.88;;;8.27;;
20709;SDS011;10516;51.518;9.864;2023-05-20T04:31:12;11.60;;;8.23;;
20709;SDS011;10516;51.518;9.864;2023-05-20T04:33:38;11.25;;;7.47;;
20709;SDS011;10516;51.518;9.864;2023-05-20T04:36:05;12.95;;;7.85;;
20709;SDS011;10516;51.518;9.864;2023-05-20T04:38:31;12.40;;;9.25;;
20709;SDS011;10516;51.518;9.864;2023-05-20T04:41:01;10.40;;;7.53;;
20709;SDS011;10516;51.518;9.864;2023-05-20T04:43:26;12.90;;;8.23;;
20709;SDS011;10516;51.518;9.864;2023-05-20T04:45:54;10.45;;;8.35;;
20709;SDS011;10516;51.518;9.864;2023-05-20T04:48:20;12.23;;;8.05;;
20709;SDS011;10516;51.518;9.864;2023-05-20T04:50:46;9.75;;;8.63;;
20709;SDS011;10516;51.518;9.864;2023-05-20T04:53:16;13.95;;;8.93;;
20709;SDS011;10516;51.518;9.864;2023-05-20T04:55:42;11.63;;;7.78;;
20709;SDS011;10516;51.518;9.864;2023-05-20T04:58:08;11.18;;;8.18;;
20709;SDS011;10516;51.518;9.864;2023-05-20T05:00:43;10.00;;;7.93;;
20709;SDS011;10516;51.518;9.864;2023-05-20T05:03:09;14.88;;;8.20;;
20709;SDS011;10516;51.518;9.864;2023-05-20T05:05:35;15.68;;;8.57;;
20709;SDS011;10516;51.518;9.864;2023-05-20T05:08:06;11.50;;;8.23;;
20709;SDS011;10516;51.518;9.864;2023-05-20T05:10:33;9.73;;;7.22;;
20709;SDS011;10516;51.518;9.864;2023-05-20T05:13:02;12.77;;;8.23;;
20709;SDS011;10516;51.518;9.864;2023-05-20T05:15:28;14.57;;;10.25;;
20709;SDS011;10516;51.518;9.864;2023-05-20T05:17:54;16.20;;;10.25;;
20709;SDS011;10516;51.518;9.864;2023-05-20T05:20:19;10.85;;;9.25;;
20709;SDS011;10516;51.518;9.864;2023-05-20T05:22:45;14.48;;;10.07;;
20709;SDS011;10516;51.518;9.864;2023-05-20T05:25:11;13.70;;;9.00;;
20709;SDS011;10516;51.518;9.864;2023-05-20T05:27:37;15.88;;;9.05;;
20709;SDS011;10516;51.518;9.864;2023-05-20T05:30:02;11.50;;;7.75;;
20709;SDS011;10516;51.518;9.864;2023-05-20T05:32:29;11.65;;;9.45;;
20709;SDS011;10516;51.518;9.864;2023-05-20T05:34:54;10.10;;;7.78;;
20709;SDS011;10516;51.518;9.864;2023-05-20T05:37:20;15.05;;;10.68;;
20709;SDS011;10516;51.518;9.864;2023-05-20T05:39:46;13.65;;;8.68;;
20709;SDS011;10516;51.518;9.864;2023-05-20T05:42:11;8.18;;;5.93;;
20709;SDS011;10516;51.518;9.864;2023-05-20T05:44:37;8.32;;;7.40;;
20709;SDS011;10516;51.518;9.864;2023-05-20T05:47:02;16.58;;;10.10;;
20709;SDS011;10516;51.518;9.864;2023-05-20T05:49:28;12.25;;;9.23;;
20709;SDS011;10516;51.518;9.864;2023-05-20T05:51:53;16.20;;;8.73;;
20709;SDS011;10516;51.518;9.864;2023-05-20T05:54:19;15.65;;;10.38;;
20709;SDS011;10516;51.518;9.864;2023-05-20T05:56:45;14.18;;;10.20;;
20709;SDS011;10516;51.518;9.864;2023-05-20T05:59:10;14.38;;;9.32;;
20709;SDS011;10516;51.518;9.864;2023-05-20T06:01:35;16.63;;;10.95;;
20709;SDS011;10516;51.518;9.864;2023-05-20T06:04:01;17.38;;;11.40;;
20709;SDS011;10516;51.518;9.864;2023-05-20T06:06:27;16.33;;;12.40;;
20709;SDS011;10516;51.518;9.864;2023-05-20T06:08:52;19.73;;;13.23;;
20709;SDS011;10516;51.518;9.864;2023-05-20T06:11:17;15.13;;;12.10;;
20709;SDS011;10516;51.518;9.864;2023-05-20T06:13:43;19.30;;;13.50;;
20709;SDS011;10516;51.518;9.864;2023-05-20T06:16:08;20.92;;;14.23;;
20709;SDS011;10516;51.518;9.864;2023-05-20T06:18:34;17.25;;;12.80;;
20709;SDS011;10516;51.518;9.864;2023-05-20T06:20:59;18.48;;;13.48;;
20709;SDS011;10516;51.518;9.864;2023-05-20T06:23:25;19.70;;;12.98;;
20709;SDS011;10516;51.518;9.864;2023-05-20T06:25:50;17.17;;;13.10;;
20709;SDS011;10516;51.518;9.864;2023-05-20T06:28:16;13.80;;;12.30;;
20709;SDS011;10516;51.518;9.864;2023-05-20T06:30:42;19.23;;;12.23;;
20709;SDS011;10516;51.518;9.864;2023-05-20T06:33:07;16.13;;;13.30;;
20709;SDS011;10516;51.518;9.864;2023-05-20T06:35:33;13.63;;;11.90;;
20709;SDS011;10516;51.518;9.864;2023-05-20T06:38:01;17.90;;;13.50;;
20709;SDS011;10516;51.518;9.864;2023-05-20T06:40:27;18.15;;;12.80;;
20709;SDS011;10516;51.518;9.864;2023-05-20T06:42:52;17.50;;;12.02;;
20709;SDS011;10516;51.518;9.864;2023-05-20T06:45:18;21.08;;;13.23;;
20709;SDS011;10516;51.518;9.864;2023-05-20T06:47:44;15.00;;;11.45;;
20709;SDS011;10516;51.518;9.864;2023-05-20T06:50:09;15.88;;;11.75;;
20709;SDS011;10516;51.518;9.864;2023-05-20T06:52:35;14.02;;;10.82;;
20709;SDS011;10516;51.518;9.864;2023-05-20T06:55:01;16.52;;;11.75;;
20709;SDS011;10516;51.518;9.864;2023-05-20T06:57:27;16.30;;;11.77;;
20709;SDS011;10516;51.518;9.864;2023-05-20T06:59:53;16.38;;;11.65;;
20709;SDS011;10516;51.518;9.864;2023-05-20T07:02:19;14.70;;;12.55;;
20709;SDS011;10516;51.518;9.864;2023-05-20T07:04:45;16.80;;;10.75;;
20709;SDS011;10516;51.518;9.864;2023-05-20T07:07:11;18.42;;;11.90;;
20709;SDS011;10516;51.518;9.864;2023-05-20T07:09:36;13.45;;;11.75;;
20709;SDS011;10516;51.518;9.864;2023-05-20T07:12:01;19.77;;;12.85;;
20709;SDS011;10516;51.518;9.864;2023-05-20T07:14:27;13.07;;;10.40;;
20709;SDS011;10516;51.518;9.864;2023-05-20T07:16:52;14.48;;;10.30;;
20709;SDS011;10516;51.518;9.864;2023-05-20T07:19:18;14.70;;;11.80;;
20709;SDS011;10516;51.518;9.864;2023-05-20T07:21:43;14.13;;;10.40;;
20709;SDS011;10516;51.518;9.864;2023-05-20T07:24:09;17.02;;;11.23;;
20709;SDS011;10516;51.518;9.864;2023-05-20T07:26:34;17.85;;;12.15;;
20709;SDS011;10516;51.518;9.864;2023-05-20T07:29:01;17.60;;;11.02;;
20709;SDS011;10516;51.518;9.864;2023-05-20T07:31:27;17.73;;;11.82;;
20709;SDS011;10516;51.518;9.864;2023-05-20T07:33:53;13.75;;;10.63;;
20709;SDS011;10516;51.518;9.864;2023-05-20T07:36:18;17.65;;;11.82;;
20709;SDS011;10516;51.518;9.864;2023-05-20T07:38:43;15.38;;;9.77;;
20709;SDS011;10516;51.518;9.864;2023-05-20T07:41:09;17.08;;;11.30;;
20709;SDS011;10516;51.518;9.864;2023-05-20T07:43:35;16.60;;;11.38;;
20709;SDS011;10516;51.518;9.864;2023-05-20T07:46:00;19.70;;;11.95;;
20709;SDS011;10516;51.518;9.864;2023-05-20T07:48:26;13.68;;;11.00;;
20709;SDS011;10516;51.518;9.864;2023-05-20T07:50:52;16.70;;;11.35;;
20709;SDS011;10516;51.518;9.864;2023-05-20T07:53:17;13.85;;;10.55;;
20709;SDS011;10516;51.518;9.864;2023-05-20T07:55:43;19.30;;;10.75;;
20709;SDS011;10516;51.518;9.864;2023-05-20T07:58:08;12.02;;;10.73;;
20709;SDS011;10516;51.518;9.864;2023-05-20T08:00:33;13.82;;;9.60;;
20709;SDS011;10516;51.518;9.864;2023-05-20T08:02:59;14.88;;;11.40;;
20709;SDS011;10516;51.518;9.864;2023-05-20T08:05:24;15.75;;;11.20;;
20709;SDS011;10516;51.518;9.864;2023-05-20T08:07:50;11.40;;;9.57;;
20709;SDS011;10516;51.518;9.864;2023-05-20T08:10:15;11.65;;;8.85;;
20709;SDS011;10516;51.518;9.864;2023-05-20T08:12:41;16.38;;;11.25;;
20709;SDS011;10516;51.518;9.864;2023-05-20T08:15:06;10.10;;;8.70;;
20709;SDS011;10516;51.518;9.864;2023-05-20T08:17:32;12.10;;;10.43;;
20709;SDS011;10516;51.518;9.864;2023-05-20T08:19:59;14.75;;;11.00;;
20709;SDS011;10516;51.518;9.864;2023-05-20T08:22:25;12.93;;;10.25;;
20709;SDS011;10516;51.518;9.864;2023-05-20T08:24:50;15.52;;;10.80;;
20709;SDS011;10516;51.518;9.864;2023-05-20T08:27:16;13.27;;;11.10;;
20709;SDS011;10516;51.518;9.864;2023-05-20T08:29:43;16.38;;;10.50;;
20709;SDS011;10516;51.518;9.864;2023-05-20T08:32:08;14.30;;;10.77;;
20709;SDS011;10516;51.518;9.864;2023-05-20T08:34:34;47.55;;;12.60;;
20709;SDS011;10516;51.518;9.864;2023-05-20T08:37:00;13.27;;;10.52;;
20709;SDS011;10516;51.518;9.864;2023-05-20T08:39:26;13.00;;;9.82;;
20709;SDS011;10516;51.518;9.864;2023-05-20T08:41:52;12.40;;;9.32;;
20709;SDS011;10516;51.518;9.864;2023-05-20T08:44:18;15.40;;;11.55;;
20709;SDS011;10516;51.518;9.864;2023-05-20T08:46:44;16.75;;;10.77;;
20709;SDS011;10516;51.518;9.864;2023-05-20T08:49:10;17.58;;;9.95;;
20709;SDS011;10516;51.518;9.864;2023-05-20T08:51:36;13.60;;;10.73;;
20709;SDS011;10516;51.518;9.864;2023-05-20T08:54:02;11.50;;;9.50;;
20709;SDS011;10516;51.518;9.864;2023-05-20T08:56:28;11.55;;;9.75;;
20709;SDS011;10516;51.518;9.864;2023-05-20T08:58:53;14.13;;;10.60;;
20709;SDS011;10516;51.518;9.864;2023-05-20T09:01:22;14.02;;;11.07;;
20709;SDS011;10516;51.518;9.864;2023-05-20T09:03:49;16.13;;;8.77;;
20709;SDS011;10516;51.518;9.864;2023-05-20T09:06:15;13.77;;;9.50;;
20709;SDS011;10516;51.518;9.864;2023-05-20T09:08:44;12.70;;;8.85;;
20709;SDS011;10516;51.518;9.864;2023-05-20T09:11:10;15.73;;;9.38;;
20709;SDS011;10516;51.518;9.864;2023-05-20T09:13:36;14.93;;;11.65;;
20709;SDS011;10516;51.518;9.864;2023-05-20T09:16:02;15.85;;;10.45;;
20709;SDS011;10516;51.518;9.864;2023-05-20T09:18:28;14.40;;;11.02;;
20709;SDS011;10516;51.518;9.864;2023-05-20T09:20:53;14.30;;;9.57;;
20709;SDS011;10516;51.518;9.864;2023-05-20T09:23:19;13.63;;;9.77;;
20709;SDS011;10516;51.518;9.864;2023-05-20T09:25:49;12.52;;;10.07;;
20709;SDS011;10516;51.518;9.864;2023-05-20T09:28:16;14.50;;;9.85;;
20709;SDS011;10516;51.518;9.864;2023-05-20T09:30:43;12.52;;;10.20;;
20709;SDS011;10516;51.518;9.864;2023-05-20T09:33:10;13.50;;;10.38;;
20709;SDS011;10516;51.518;9.864;2023-05-20T09:35:36;13.93;;;10.57;;
20709;SDS011;10516;51.518;9.864;2023-05-20T09:38:02;13.75;;;10.50;;
20709;SDS011;10516;51.518;9.864;2023-05-20T09:40:29;13.63;;;10.80;;
20709;SDS011;10516;51.518;9.864;2023-05-20T09:42:56;12.00;;;9.73;;
20709;SDS011;10516;51.518;9.864;2023-05-20T09:45:25;15.95;;;9.95;;
20709;SDS011;10516;51.518;9.864;2023-05-20T09:47:51;12.13;;;9.80;;
20709;SDS011;10516;51.518;9.864;2023-05-20T09:50:17;14.50;;;9.70;;
20709;SDS011;10516;51.518;9.864;2023-05-20T09:52:47;13.73;;;9.30;;
20709;SDS011;10516;51.518;9.864;2023-05-20T09:55:14;12.13;;;9.57;;
20709;SDS011;10516;51.518;9.864;2023-05-20T09:57:41;11.40;;;9.75;;
20709;SDS011;10516;51.518;9.864;2023-05-20T10:00:07;12.00;;;8.65;;
20709;SDS011;10516;51.518;9.864;2023-05-20T10:02:34;12.70;;;10.23;;
20709;SDS011;10516;51.518;9.864;2023-05-20T10:05:04;10.65;;;8.65;;
20709;SDS011;10516;51.518;9.864;2023-05-20T10:07:58;14.75;;;9.95;;
20709;SDS011;10516;51.518;9.864;2023-05-20T10:14:25;12.45;;;8.70;;
20709;SDS011;10516;51.518;9.864;2023-05-20T10:16:37;13.10;;;8.57;;
20709;SDS011;10516;51.518;9.864;2023-05-20T10:21:42;12.38;;;9.75;;
20709;SDS011;10516;51.518;9.864;2023-05-20T10:24:08;12.65;;;10.27;;
20709;SDS011;10516;51.518;9.864;2023-05-20T10:26:35;13.50;;;10.68;;
20709;SDS011;10516;51.518;9.864;2023-05-20T10:29:14;12.02;;;9.73;;
20709;SDS011;10516;51.518;9.864;2023-05-20T10:34:15;13.63;;;9.50;;
20709;SDS011;10516;51.518;9.864;2023-05-20T10:36:46;11.88;;;9.35;;
20709;SDS011;10516;51.518;9.864;2023-05-20T10:39:25;9.82;;;8.45;;
20709;SDS011;10516;51.518;9.864;2023-05-20T10:41:52;12.48;;;9.23;;
20709;SDS011;10516;51.518;9.864;2023-05-20T10:44:17;10.48;;;9.35;;
20709;SDS011;10516;51.518;9.864;2023-05-20T10:46:43;12.65;;;8.95;;
20709;SDS011;10516;51.518;9.864;2023-05-20T10:49:18;14.05;;;9.30;;
20709;SDS011;10516;51.518;9.864;2023-05-20T10:51:44;15.05;;;9.82;;
20709;SDS011;10516;51.518;9.864;2023-05-20T10:54:11;12.52;;;10.25;;
20709;SDS011;10516;51.518;9.864;2023-05-20T10:56:38;12.23;;;9.68;;
20709;SDS011;10516;51.518;9.864;2023-05-20T10:59:05;19.90;;;8.90;;
20709;SDS011;10516;51.518;9.864;2023-05-20T11:01:30;12.90;;;9.57;;
20709;SDS011;10516;51.518;9.864;2023-05-20T11:04:08;10.65;;;8.80;;
20709;SDS011;10516;51.518;9.864;2023-05-20T11:06:34;13.07;;;9.38;;
20709;SDS011;10516;51.518;9.864;2023-05-20T11:09:03;14.07;;;9.48;;
20709;SDS011;10516;51.518;9.864;2023-05-20T11:11:32;13.15;;;8.82;;
20709;SDS011;10516;51.518;9.864;2023-05-20T11:13:57;14.38;;;10.80;;
20709;SDS011;10516;51.518;9.864;2023-05-20T11:16:25;16.02;;;10.10;;
20709;SDS011;10516;51.518;9.864;2023-05-20T11:18:51;16.10;;;9.32;;
20709;SDS011;10516;51.518;9.864;2023-05-20T11:21:17;13.60;;;10.00;;
20709;SDS011;10516;51.518;9.864;2023-05-20T11:23:43;11.85;;;10.32;;
20709;SDS011;10516;51.518;9.864;2023-05-20T11:26:09;14.10;;;9.80;;
20709;SDS011;10516;51.518;9.864;2023-05-20T11:28:35;16.65;;;11.13;;
20709;SDS011;10516;51.518;9.864;2023-05-20T11:31:00;19.25;;;9.70;;
20709;SDS011;10516;51.518;9.864;2023-05-20T11:33:26;14.82;;;10.20;;
20709;SDS011;10516;51.518;9.864;2023-05-20T11:35:51;13.93;;;9.35;;
20709;SDS011;10516;51.518;9.864;2023-05-20T11:38:18;13.25;;;9.55;;
20709;SDS011;10516;51.518;9.864;2023-05-20T11:40:45;12.35;;;9.60;;
20709;SDS011;10516;51.518;9.864;2023-05-20T11:43:20;14.40;;;9.93;;
20709;SDS011;10516;51.518;9.864;2023-05-20T11:45:51;11.77;;;9.48;;
20709;SDS011;10516;51.518;9.864;2023-05-20T11:48:18;12.45;;;8.90;;
20709;SDS011;10516;51.518;9.864;2023-05-20T11:50:45;17.10;;;8.45;;
20709;SDS011;10516;51.518;9.864;2023-05-20T11:53:18;9.98;;;8.52;;
20709;SDS011;10516;51.518;9.864;2023-05-20T11:58:23;12.70;;;8.43;;
20709;SDS011;10516;51.518;9.864;2023-05-20T12:00:58;10.88;;;8.50;;
20709;SDS011;10516;51.518;9.864;2023-05-20T12:03:23;12.27;;;8.98;;
20709;SDS011;10516;51.518;9.864;2023-05-20T12:05:48;15.50;;;9.10;;
20709;SDS011;10516;51.518;9.864;2023-05-20T12:08:15;10.63;;;8.77;;
20709;SDS011;10516;51.518;9.864;2023-05-20T12:10:40;14.43;;;9.13;;
20709;SDS011;10516;51.518;9.864;2023-05-20T12:13:06;11.25;;;8.75;;
20709;SDS011;10516;51.518;9.864;2023-05-20T12:15:35;13.23;;;8.98;;
20709;SDS011;10516;51.518;9.864;2023-05-20T12:18:01;11.43;;;8.88;;
20709;SDS011;10516;51.518;9.864;2023-05-20T12:20:27;11.50;;;9.00;;
20709;SDS011;10516;51.518;9.864;2023-05-20T12:22:54;13.93;;;9.88;;
20709;SDS011;10516;51.518;9.864;2023-05-20T12:25:19;11.52;;;9.07;;
20709;SDS011;10516;51.518;9.864;2023-05-20T12:27:46;14.98;;;8.68;;
20709;SDS011;10516;51.518;9.864;2023-05-20T12:30:14;14.00;;;9.13;;
20709;SDS011;10516;51.518;9.864;2023-05-20T12:32:44;12.00;;;8.85;;
20709;SDS011;10516;51.518;9.864;2023-05-20T12:35:10;12.45;;;8.65;;
20709;SDS011;10516;51.518;9.864;2023-05-20T12:37:39;10.45;;;8.40;;
20709;SDS011;10516;51.518;9.864;2023-05-20T12:40:06;11.98;;;9.43;;
20709;SDS011;10516;51.518;9.864;2023-05-20T12:42:36;11.27;;;8.40;;
20709;SDS011;10516;51.518;9.864;2023-05-20T12:45:02;11.63;;;9.18;;
20709;SDS011;10516;51.518;9.864;2023-05-20T12:47:32;13.55;;;9.20;;
20709;SDS011;10516;51.518;9.864;2023-05-20T12:49:58;10.02;;;8.52;;
20709;SDS011;10516;51.518;9.864;2023-05-20T12:52:24;12.35;;;9.15;;
20709;SDS011;10516;51.518;9.864;2023-05-20T12:54:50;12.65;;;9.25;;
20709;SDS011;10516;51.518;9.864;2023-05-20T12:57:15;11.55;;;8.57;;
20709;SDS011;10516;51.518;9.864;2023-05-20T12:59:42;10.85;;;8.60;;
20709;SDS011;10516;51.518;9.864;2023-05-20T13:02:08;11.70;;;8.23;;
20709;SDS011;10516;51.518;9.864;2023-05-20T13:04:35;15.55;;;8.70;;
20709;SDS011;10516;51.518;9.864;2023-05-20T13:07:00;12.27;;;8.95;;
20709;SDS011;10516;51.518;9.864;2023-05-20T13:09:26;10.98;;;9.18;;
20709;SDS011;10516;51.518;9.864;2023-05-20T13:11:51;12.57;;;9.27;;
20709;SDS011;10516;51.518;9.864;2023-05-20T13:14:16;14.15;;;10.13;;
20709;SDS011;10516;51.518;9.864;2023-05-20T13:16:42;13.27;;;9.93;;
20709;SDS011;10516;51.518;9.864;2023-05-20T13:19:14;13.05;;;9.30;;
20709;SDS011;10516;51.518;9.864;2023-05-20T13:21:39;21.20;;;11.30;;
20709;SDS011;10516;51.518;9.864;2023-05-20T13:24:08;14.25;;;9.95;;
20709;SDS011;10516;51.518;9.864;2023-05-20T13:26:33;13.73;;;10.10;;
20709;SDS011;10516;51.518;9.864;2023-05-20T13:28:59;12.85;;;10.18;;
20709;SDS011;10516;51.518;9.864;2023-05-20T13:31:27;16.67;;;9.90;;
20709;SDS011;10516;51.518;9.864;2023-05-20T13:33:52;11.77;;;10.05;;
20709;SDS011;10516;51.518;9.864;2023-05-20T13:36:19;14.13;;;10.90;;
20709;SDS011;10516;51.518;9.864;2023-05-20T13:38:44;14.07;;;11.10;;
20709;SDS011;10516;51.518;9.864;2023-05-20T13:41:10;18.38;;;12.40;;
20709;SDS011;10516;51.518;9.864;2023-05-20T13:43:35;18.38;;;14.02;;
20709;SDS011;10516;51.518;9.864;2023-05-20T13:46:01;18.42;;;12.48;;
20709;SDS011;10516;51.518;9.864;2023-05-20T13:48:26;16.73;;;11.73;;
20709;SDS011;10516;51.518;9.864;2023-05-20T13:50:53;17.77;;;12.23;;
20709;SDS011;10516;51.518;9.864;2023-05-20T13:53:18;19.13;;;12.15;;
20709;SDS011;10516;51.518;9.864;2023-05-20T13:55:43;23.52;;;12.95;;
20709;SDS011;10516;51.518;9.864;2023-05-20T13:58:09;18.73;;;13.60;;
20709;SDS011;10516;51.518;9.864;2023-05-20T14:00:35;21.23;;;13.40;;
20709;SDS011;10516;51.518;9.864;2023-05-20T14:03:00;19.15;;;13.38;;
20709;SDS011;10516;51.518;9.864;2023-05-20T14:05:28;21.48;;;13.85;;
20709;SDS011;10516;51.518;9.864;2023-05-20T14:07:57;23.17;;;13.80;;
20709;SDS011;10516;51.518;9.864;2023-05-20T14:10:22;19.60;;;13.50;;
20709;SDS011;10516;51.518;9.864;2023-05-20T14:12:48;19.42;;;13.13;;
20709;SDS011;10516;51.518;9.864;2023-05-20T14:15:13;19.13;;;13.63;;
20709;SDS011;10516;51.518;9.864;2023-05-20T14:17:39;21.60;;;13.68;;
20709;SDS011;10516;51.518;9.864;2023-05-20T14:20:04;24.48;;;16.05;;
20709;SDS011;10516;51.518;9.864;2023-05-20T14:22:30;25.92;;;15.63;;
20709;SDS011;10516;51.518;9.864;2023-05-20T14:24:56;20.80;;;14.88;;
20709;SDS011;10516;51.518;9.864;2023-05-20T14:27:22;19.40;;;14.30;;
20709;SDS011;10516;51.518;9.864;2023-05-20T14:29:47;23.05;;;14.05;;
20709;SDS011;10516;51.518;9.864;2023-05-20T14:32:12;21.40;;;13.38;;
20709;SDS011;10516;51.518;9.864;2023-05-20T14:34:38;20.45;;;14.68;;
20709;SDS011;10516;51.518;9.864;2023-05-20T14:37:03;20.73;;;14.73;;
20709;SDS011;10516;51.518;9.864;2023-05-20T14:39:33;24.35;;;15.93;;